Time;durP1;ratioP1;P1;durP2;ratioP2;P2;SDS_P1;SDS_P2;PMS_P1;PMS_P2;Temp;Humidity;BMP_temperature;BMP_pressure;BME280_temperature;BME280_humidity;BME280_pressure;Samples;Min_cycle;Max_cycle;Signal;HPM_P1;HPM_P2
2023/10/20 00:01:52;;;;;;;5.13;3.40;;;;;;;16.77;67.21;98601.66;5094611;28;20196;-90
2023/10/20 00:04:19;;;;;;;5.93;3.63;;;;;;;16.73;67.27;98600.25;5084411;28;20260;-90
2023/10/20 00:06:46;;;;;;;6.93;4.10;;;;;;;16.77;67.13;98593.72;5074079;28;20177;-90
2023/10/20 00:09:14;;;;;;;6.87;4.40;;;;;;;16.72;66.97;98580.06;5074038;28;20175;-90
2023/10/20 00:11:42;;;;;;;6.57;4.50;;;;;;;16.67;67.44;98582.22;5073709;28;20622;-90
2023/10/20 00:14:09;;;;;;;6.93;4.30;;;;;;;16.66;67.33;98584.06;5074183;28;20204;-90
2023/10/20 00:16:36;;;;;;;7.30;4.67;;;;;;;16.65;67.21;98576.25;5083719;28;20622;-90
2023/10/20 00:19:02;;;;;;;8.03;4.00;;;;;;;16.62;67.34;98574.69;5093030;28;20199;-90
2023/10/20 00:21:29;;;;;;;8.17;4.57;;;;;;;16.64;67.25;98577.22;5091077;28;20183;-90
2023/10/20 00:23:55;;;;;;;7.60;4.33;;;;;;;16.69;66.98;98590.91;5073714;28;20559;-90
2023/10/20 00:26:21;;;;;;;7.07;4.33;;;;;;;16.59;66.94;98574.94;5076836;28;20229;-90
2023/10/20 00:28:48;;;;;;;7.77;4.70;;;;;;;16.64;66.50;98574.59;5092932;28;20180;-89
2023/10/20 00:31:16;;;;;;;7.33;4.63;;;;;;;16.67;66.41;98571.66;5094109;28;20207;-89
2023/10/20 00:33:45;;;;;;;6.73;4.17;;;;;;;16.65;66.11;98566.50;5092319;28;20621;-89
2023/10/20 00:36:12;;;;;;;7.73;4.63;;;;;;;16.62;66.12;98564.13;5094223;28;20190;-89
2023/10/20 00:38:37;;;;;;;7.03;3.87;;;;;;;16.59;66.46;98549.34;5093570;28;20199;-89
2023/10/20 00:41:04;;;;;;;8.17;4.57;;;;;;;16.57;66.46;98556.56;5093479;28;20181;-89
2023/10/20 00:43:35;;;;;;;6.43;3.87;;;;;;;16.54;66.52;98561.28;5093482;28;20672;-90
2023/10/20 00:46:04;;;;;;;8.50;4.00;;;;;;;16.50;67.02;98560.69;5093537;28;20306;-89
2023/10/20 00:48:40;;;;;;;6.93;4.20;;;;;;;16.47;66.92;98566.25;5093645;28;20202;-89
2023/10/20 00:51:07;;;;;;;8.77;4.90;;;;;;;16.57;66.42;98561.03;5092170;28;20699;-90
2023/10/20 00:53:37;;;;;;;6.67;3.80;;;;;;;16.51;66.28;98562.34;5092657;28;20187;-90
2023/10/20 00:56:04;;;;;;;7.97;4.60;;;;;;;16.48;66.44;98559.97;5093211;28;20199;-90
2023/10/20 00:58:32;;;;;;;8.30;4.30;;;;;;;16.49;66.27;98559.00;5093520;28;20183;-90
2023/10/20 01:00:58;;;;;;;8.03;4.47;;;;;;;16.45;66.37;98570.84;5093291;28;20624;-89
2023/10/20 01:03:25;;;;;;;9.77;4.57;;;;;;;16.44;66.31;98571.78;5093368;28;20179;-90
2023/10/20 01:05:51;;;;;;;7.10;4.33;;;;;;;16.46;66.16;98574.28;5093172;28;20175;-91
2023/10/20 01:08:17;;;;;;;7.40;4.00;;;;;;;16.41;66.35;98571.22;5092980;28;20176;-90
2023/10/20 01:10:43;;;;;;;7.03;4.27;;;;;;;16.28;66.44;98566.13;5092359;28;20202;-90
2023/10/20 01:13:10;;;;;;;7.77;4.27;;;;;;;16.25;66.40;98563.75;5092675;28;20183;-90
2023/10/20 01:15:37;;;;;;;5.90;3.83;;;;;;;16.23;66.51;98563.03;5093234;28;20200;-90
2023/10/20 01:18:02;;;;;;;5.70;3.80;;;;;;;16.21;66.75;98561.50;5093105;28;20199;-90
2023/10/20 01:20:28;;;;;;;7.07;4.17;;;;;;;16.12;67.56;98565.75;5093126;28;20262;-90
2023/10/20 01:22:53;;;;;;;9.20;4.03;;;;;;;16.08;68.14;98561.69;5093363;28;20207;-90
2023/10/20 01:25:22;;;;;;;9.60;4.07;;;;;;;16.06;68.15;98557.50;5092259;28;20776;-89
2023/10/20 01:27:49;;;;;;;7.43;3.60;;;;;;;16.06;67.98;98560.16;5092894;28;20215;-90
2023/10/20 01:30:14;;;;;;;6.80;3.77;;;;;;;16.04;68.06;98560.25;5093424;28;20202;-90
2023/10/20 01:32:41;;;;;;;6.80;3.10;;;;;;;16.05;67.89;98556.66;5093031;28;20219;-90
2023/10/20 01:35:07;;;;;;;6.00;3.50;;;;;;;16.04;67.89;98562.91;5093007;28;20202;-90
2023/10/20 01:37:32;;;;;;;6.23;3.60;;;;;;;16.00;67.83;98561.50;5091980;28;20180;-89
2023/10/20 01:39:59;;;;;;;4.83;3.20;;;;;;;15.94;67.99;98552.28;5095419;28;20314;-90
2023/10/20 01:42:26;;;;;;;6.53;3.50;;;;;;;15.92;68.36;98556.84;5096735;28;20187;-89
2023/10/20 01:44:51;;;;;;;5.00;3.27;;;;;;;15.97;68.19;98552.03;5096891;28;20650;-90
2023/10/20 01:47:18;;;;;;;5.63;3.10;;;;;;;16.01;67.88;98539.34;5096096;28;20180;-90
2023/10/20 01:49:45;;;;;;;6.97;3.60;;;;;;;16.07;67.59;98546.78;5095999;28;20620;-90
2023/10/20 01:52:11;;;;;;;5.37;3.00;;;;;;;16.08;67.41;98551.13;5095357;28;20207;-90
2023/10/20 01:54:38;;;;;;;8.07;3.40;;;;;;;16.08;66.81;98556.41;5095569;28;20199;-90
2023/10/20 01:57:04;;;;;;;5.47;3.00;;;;;;;16.02;66.51;98556.91;5096084;28;20607;-90
2023/10/20 01:59:30;;;;;;;4.77;3.30;;;;;;;16.10;66.44;98557.09;5095236;28;20191;-90
2023/10/20 02:01:55;;;;;;;5.60;3.17;;;;;;;16.06;66.44;98550.41;5096198;28;20185;-90
2023/10/20 02:04:21;;;;;;;7.40;4.23;;;;;;;16.03;66.29;98550.66;5095710;28;20183;-90
2023/10/20 02:06:47;;;;;;;4.80;2.93;;;;;;;16.03;66.08;98555.97;5095702;28;20184;-90
2023/10/20 02:09:12;;;;;;;5.97;3.50;;;;;;;16.03;65.80;98550.66;5096847;28;20168;-90
2023/10/20 02:11:38;;;;;;;6.03;3.60;;;;;;;15.99;65.63;98555.38;5095680;28;20224;-89
2023/10/20 02:14:03;;;;;;;5.00;2.97;;;;;;;16.00;65.57;98553.56;5096628;28;20191;-90
2023/10/20 02:16:30;;;;;;;5.10;3.07;;;;;;;16.01;65.16;98557.88;5096439;28;20656;-90
2023/10/20 02:18:55;;;;;;;5.50;3.20;;;;;;;16.12;64.85;98560.44;5096336;28;20221;-89
2023/10/20 02:21:21;;;;;;;7.27;3.43;;;;;;;16.01;64.76;98563.16;5096345;28;20217;-90
2023/10/20 02:23:46;;;;;;;5.23;2.70;;;;;;;15.92;64.68;98556.00;5096893;28;20183;-90
2023/10/20 02:26:12;;;;;;;5.57;3.40;;;;;;;15.89;64.76;98548.34;5096312;28;20175;-90
2023/10/20 02:28:38;;;;;;;6.70;2.90;;;;;;;15.85;64.55;98562.78;5095324;28;20203;-90
2023/10/20 02:31:20;;;;;;;5.67;3.43;;;;;;;15.75;64.70;98553.91;5095243;28;20220;-89
2023/10/20 02:33:46;;;;;;;6.63;3.70;;;;;;;15.78;64.63;98561.59;5095240;28;20631;-90
2023/10/20 02:36:17;;;;;;;5.50;3.53;;;;;;;15.77;64.37;98563.41;5095046;28;20282;-89
2023/10/20 02:38:42;;;;;;;6.23;3.47;;;;;;;15.67;64.46;98559.84;5095865;28;20568;-90
2023/10/20 02:41:08;;;;;;;6.97;4.13;;;;;;;15.63;64.71;98562.84;5096244;28;20172;-90
2023/10/20 02:43:34;;;;;;;7.70;4.70;;;;;;;15.72;64.39;98552.38;5095894;28;20274;-90
2023/10/20 02:45:59;;;;;;;6.57;4.10;;;;;;;15.64;64.89;98561.91;5095846;28;20289;-90
2023/10/20 02:48:25;;;;;;;10.23;4.70;;;;;;;15.58;65.06;98559.75;5094874;28;20198;-90
2023/10/20 02:50:51;;;;;;;6.70;3.50;;;;;;;15.52;64.99;98549.69;5094983;28;20520;-90
2023/10/20 02:53:17;;;;;;;8.27;4.33;;;;;;;15.50;64.97;98549.81;5096012;28;20171;-90
2023/10/20 02:55:44;;;;;;;6.43;4.10;;;;;;;15.49;65.20;98555.25;5094926;28;20677;-90
2023/10/20 02:58:10;;;;;;;7.03;3.80;;;;;;;15.47;65.11;98551.88;5095614;28;20178;-89
2023/10/20 03:00:45;;;;;;;7.07;4.03;;;;;;;15.52;64.84;98544.41;5094611;28;20201;-89
2023/10/20 03:03:12;;;;;;;7.43;3.80;;;;;;;15.49;64.98;98549.97;5095503;28;20178;-89
2023/10/20 03:05:38;;;;;;;6.40;3.63;;;;;;;15.44;64.85;98541.50;5096012;28;20183;-90
2023/10/20 03:08:05;;;;;;;7.03;3.50;;;;;;;15.39;64.71;98548.03;5095465;28;20190;-90
2023/10/20 03:10:30;;;;;;;6.77;4.00;;;;;;;15.32;64.58;98544.22;5095601;28;20240;-90
2023/10/20 03:12:56;;;;;;;8.20;4.20;;;;;;;15.30;64.63;98542.66;5095269;28;20179;-89
2023/10/20 03:15:22;;;;;;;11.97;4.40;;;;;;;15.29;64.09;98536.53;5094141;28;20239;-90
2023/10/20 03:17:47;;;;;;;6.60;3.70;;;;;;;15.28;63.98;98540.13;5094271;28;20183;-89
2023/10/20 03:20:17;;;;;;;9.83;4.33;;;;;;;15.23;63.90;98541.47;5095447;28;20189;-89
2023/10/20 03:22:46;;;;;;;8.30;4.07;;;;;;;15.16;63.95;98540.28;5095078;28;20194;-90
2023/10/20 03:25:12;;;;;;;9.40;4.77;;;;;;;15.08;63.75;98534.78;5095328;28;20170;-89
2023/10/20 03:27:38;;;;;;;10.70;5.67;;;;;;;15.07;63.79;98518.09;5094962;28;20180;-89
2023/10/20 03:30:05;;;;;;;8.60;4.43;;;;;;;15.00;63.70;98524.00;5111211;28;20195;-89
2023/10/20 03:32:31;;;;;;;11.00;4.93;;;;;;;14.99;63.92;98520.50;5094920;28;20624;-89
2023/10/20 03:34:57;;;;;;;9.70;5.30;;;;;;;14.94;63.44;98512.13;5095026;28;20198;-89
2023/10/20 03:37:22;;;;;;;5.90;3.93;;;;;;;14.91;63.55;98517.66;5094174;28;20180;-89
2023/10/20 03:39:49;;;;;;;8.13;4.30;;;;;;;14.83;63.86;98514.81;5094216;28;20265;-89
2023/10/20 03:42:14;;;;;;;8.50;4.77;;;;;;;14.76;63.93;98513.59;5095100;28;20648;-89
2023/10/20 03:44:42;;;;;;;8.73;4.83;;;;;;;14.74;64.15;98519.00;5094959;28;20182;-89
2023/10/20 03:47:08;;;;;;;10.80;5.10;;;;;;;14.68;64.68;98511.56;5093975;28;20555;-89
2023/10/20 03:49:35;;;;;;;9.53;5.03;;;;;;;14.73;64.32;98516.47;5094943;28;20175;-89
2023/10/20 03:52:06;;;;;;;8.53;4.80;;;;;;;14.86;64.11;98527.72;5093890;28;20274;-89
2023/10/20 03:54:32;;;;;;;8.30;5.87;;;;;;;14.85;64.19;98512.03;5075093;28;20201;-90
2023/10/20 03:56:59;;;;;;;12.70;5.30;;;;;;;14.74;64.36;98503.19;5074449;28;20239;-90
2023/10/20 03:59:27;;;;;;;7.60;4.53;;;;;;;14.72;64.52;98505.13;5101294;28;20178;-89
2023/10/20 04:01:55;;;;;;;8.27;4.20;;;;;;;14.66;64.88;98517.94;5092903;28;20221;-89
2023/10/20 04:04:22;;;;;;;8.77;4.80;;;;;;;14.57;65.25;98522.13;5093703;28;20556;-89
2023/10/20 04:06:49;;;;;;;6.13;3.60;;;;;;;14.55;65.36;98510.88;5094276;28;20185;-91
2023/10/20 04:09:17;;;;;;;9.20;4.57;;;;;;;14.58;65.52;98517.69;5093637;28;20259;-90
2023/10/20 04:11:44;;;;;;;10.90;5.10;;;;;;;14.49;65.56;98515.78;5094302;28;20664;-90
2023/10/20 04:14:12;;;;;;;11.73;4.70;;;;;;;14.51;65.08;98514.72;5093082;28;20199;-89
2023/10/20 04:16:42;;;;;;;9.60;4.80;;;;;;;14.43;65.26;98508.34;5093627;28;20178;-89
2023/10/20 04:19:14;;;;;;;8.40;5.23;;;;;;;14.44;65.19;98512.69;5094558;28;20744;-89
2023/10/20 04:21:43;;;;;;;8.53;4.57;;;;;;;14.40;65.29;98505.94;5092543;28;20187;-90
2023/10/20 04:24:10;;;;;;;10.27;5.87;;;;;;;14.35;65.25;98505.47;5092963;28;20659;-90
2023/10/20 04:26:43;;;;;;;10.50;5.50;;;;;;;14.34;65.01;98511.69;5093404;28;20181;-90
2023/10/20 04:56:23;;;;;;;8.03;5.03;;;;;;;14.21;64.87;98529.38;5081094;28;20221;-89
2023/10/20 04:58:51;;;;;;;8.50;5.07;;;;;;;14.24;64.74;98526.50;5093043;28;20247;-89
2023/10/20 05:04:23;;;;;;;9.37;5.00;;;;;;;14.29;65.12;98527.84;5059587;28;20226;-89
2023/10/20 05:07:05;;;;;;;8.77;5.33;;;;;;;14.33;65.11;98539.03;5093350;28;20207;-90
2023/10/20 05:09:35;;;;;;;7.83;4.53;;;;;;;14.42;64.60;98552.34;5093384;28;20164;-89
2023/10/20 05:12:02;;;;;;;11.70;4.83;;;;;;;14.48;64.72;98545.75;5091848;28;20222;-89
2023/10/20 05:14:28;;;;;;;8.37;4.67;;;;;;;14.47;64.74;98544.06;5094835;28;20673;-89
2023/10/20 05:16:55;;;;;;;7.87;5.07;;;;;;;14.54;64.67;98547.91;5098030;28;20172;-89
2023/10/20 05:19:22;;;;;;;13.03;6.13;;;;;;;14.62;64.61;98542.88;5079329;28;20627;-90
2023/10/20 05:21:49;;;;;;;7.87;4.83;;;;;;;14.74;64.92;98549.81;5077434;28;20177;-90
2023/10/20 05:24:14;;;;;;;9.57;5.57;;;;;;;14.86;64.65;98548.84;5078886;28;20183;-89
2023/10/20 05:26:46;;;;;;;11.00;5.47;;;;;;;15.10;64.98;98546.91;5096218;28;20189;-89
2023/10/20 05:29:14;;;;;;;17.80;5.80;;;;;;;15.31;64.44;98549.59;5096380;28;20534;-90
2023/10/20 05:31:39;;;;;;;11.20;5.50;;;;;;;15.45;63.89;98549.34;5097012;28;20629;-89
2023/10/20 05:34:06;;;;;;;11.10;5.53;;;;;;;15.65;63.42;98545.06;5097104;28;20179;-90
2023/10/20 05:36:33;;;;;;;7.93;4.53;;;;;;;16.05;62.59;98540.78;5095444;28;20179;-89
2023/10/20 05:38:58;;;;;;;8.13;4.50;;;;;;;16.61;60.71;98540.44;5096670;28;20229;-89
2023/10/20 05:41:26;;;;;;;8.77;4.87;;;;;;;17.25;58.46;98536.44;5097041;28;20182;-90
2023/10/20 05:43:53;;;;;;;10.03;5.07;;;;;;;17.59;55.75;98537.78;5097255;28;20613;-90
2023/10/20 05:46:19;;;;;;;9.43;5.33;;;;;;;17.77;54.84;98533.44;5095832;28;20686;-90
2023/10/20 05:48:47;;;;;;;14.20;5.53;;;;;;;17.86;55.17;98529.13;5096881;28;20259;-90
2023/10/20 05:51:12;;;;;;;9.13;5.73;;;;;;;17.91;54.86;98529.53;5096920;28;20184;-90
2023/10/20 05:53:40;;;;;;;9.20;5.30;;;;;;;17.94;54.66;98523.97;5096313;28;20180;-89
2023/10/20 05:56:06;;;;;;;14.30;5.43;;;;;;;17.87;55.58;98516.72;5095276;28;20273;-89
2023/10/20 05:58:33;;;;;;;11.97;4.97;;;;;;;17.89;56.03;98530.66;5095703;28;20625;-90
2023/10/20 06:01:11;;;;;;;9.63;5.23;;;;;;;17.97;56.15;98529.00;5095650;28;20263;-90
2023/10/20 06:03:39;;;;;;;8.33;5.60;;;;;;;18.31;56.07;98529.34;5095485;28;20188;-90
2023/10/20 06:06:05;;;;;;;12.93;5.40;;;;;;;19.05;54.21;98511.56;5097123;28;20259;-90
2023/10/20 06:08:31;;;;;;;11.73;5.63;;;;;;;19.79;52.63;98512.19;5096639;28;20186;-90
2023/10/20 06:11:04;;;;;;;10.30;5.53;;;;;;;20.41;50.63;98523.66;5095491;28;20187;-90
2023/10/20 06:13:35;;;;;;;11.43;5.90;;;;;;;20.98;48.36;98533.59;5089339;28;20186;-89
2023/10/20 06:16:11;;;;;;;9.70;5.23;;;;;;;21.52;47.13;98528.75;5075151;28;20280;-90
2023/10/20 06:18:39;;;;;;;10.47;6.30;;;;;;;22.25;45.32;98519.81;5076209;28;20183;-90
2023/10/20 06:21:10;;;;;;;10.83;5.80;;;;;;;23.28;43.34;98516.16;5092271;28;20192;-90
2023/10/20 06:23:37;;;;;;;12.83;5.53;;;;;;;24.21;41.55;98506.16;5096269;28;20215;-90
2023/10/20 06:26:04;;;;;;;8.40;5.57;;;;;;;24.98;39.61;98511.00;5095427;28;20609;-90
2023/10/20 06:28:29;;;;;;;8.43;4.90;;;;;;;25.49;38.63;98519.91;5096408;28;20173;-90
2023/10/20 06:31:00;;;;;;;10.50;5.23;;;;;;;25.93;37.81;98514.34;5095194;28;20187;-91
2023/10/20 06:33:32;;;;;;;9.90;6.27;;;;;;;26.23;37.48;98513.19;5096717;28;20157;-90
2023/10/20 06:36:05;;;;;;;9.50;5.93;;;;;;;26.42;36.48;98511.69;5096029;28;20193;-89
2023/10/20 06:38:32;;;;;;;11.53;6.40;;;;;;;26.55;36.90;98513.63;5095815;28;20618;-90
2023/10/20 06:40:58;;;;;;;13.50;6.53;;;;;;;26.79;36.83;98514.03;5094986;28;20169;-90
2023/10/20 06:43:24;;;;;;;10.20;6.60;;;;;;;27.08;35.95;98507.53;5095949;28;20661;-90
2023/10/20 06:45:59;;;;;;;11.80;7.20;;;;;;;27.41;35.74;98503.13;5095404;28;20194;-90
2023/10/20 06:48:26;;;;;;;11.73;6.40;;;;;;;27.59;35.54;98499.03;5096054;28;20196;-90
2023/10/20 06:50:52;;;;;;;10.50;6.63;;;;;;;27.68;34.99;98503.19;5095538;28;20329;-91
2023/10/20 06:53:18;;;;;;;11.27;6.13;;;;;;;27.69;35.76;98504.88;5089288;28;20212;-90
2023/10/20 06:55:49;;;;;;;11.27;6.67;;;;;;;27.68;35.25;98506.72;5075979;28;20239;-92
2023/10/20 06:58:19;;;;;;;12.77;6.73;;;;;;;27.49;34.85;98507.50;5074547;28;20200;-90
2023/10/20 07:00:46;;;;;;;13.37;7.00;;;;;;;27.03;36.32;98503.78;5075023;28;20189;-92
2023/10/20 07:03:13;;;;;;;13.23;6.90;;;;;;;26.83;36.42;98517.16;5075673;28;20177;-90
2023/10/20 07:05:40;;;;;;;14.57;6.87;;;;;;;26.74;37.38;98511.06;5076327;28;20189;-91
2023/10/20 07:08:07;;;;;;;14.40;7.60;;;;;;;26.77;37.94;98507.19;5095779;28;20645;-91
2023/10/20 07:10:37;;;;;;;16.00;6.77;;;;;;;26.82;37.65;98504.72;5096065;28;20169;-91
2023/10/20 07:13:08;;;;;;;14.63;7.97;;;;;;;26.81;37.54;98508.44;5094983;28;20184;-91
2023/10/20 07:15:40;;;;;;;19.30;7.47;;;;;;;26.85;37.63;98512.41;5095378;28;20196;-90
2023/10/20 07:18:07;;;;;;;13.13;7.50;;;;;;;26.78;37.43;98506.16;5094745;28;20182;-91
2023/10/20 07:20:38;;;;;;;14.83;7.47;;;;;;;26.59;38.18;98507.66;5094833;28;20220;-91
2023/10/20 07:23:05;;;;;;;12.23;7.87;;;;;;;26.53;38.29;98502.25;5090907;28;20267;-92
2023/10/20 07:25:32;;;;;;;12.00;7.40;;;;;;;26.46;38.85;98507.59;5074059;28;20185;-91
2023/10/20 07:27:59;;;;;;;16.80;7.60;;;;;;;26.37;38.92;98513.28;5084028;28;20184;-92
2023/10/20 07:30:30;;;;;;;12.87;7.07;;;;;;;26.18;39.11;98510.25;5094174;28;20176;-91
2023/10/20 07:32:56;;;;;;;12.40;6.43;;;;;;;26.09;39.31;98519.47;5095311;28;20157;-91
2023/10/20 07:35:22;;;;;;;10.37;6.13;;;;;;;25.99;39.48;98521.66;5095150;28;20196;-92
2023/10/20 07:37:49;;;;;;;12.30;6.43;;;;;;;25.79;39.63;98528.66;5094827;28;20542;-91
2023/10/20 07:40:14;;;;;;;11.03;6.60;;;;;;;25.57;39.90;98519.81;5094782;28;20319;-91
2023/10/20 07:42:42;;;;;;;10.93;6.10;;;;;;;25.36;39.86;98524.25;5094849;28;20611;-91
2023/10/20 07:45:07;;;;;;;10.47;6.13;;;;;;;25.20;40.50;98524.47;5089861;28;20594;-90
2023/10/20 07:47:34;;;;;;;10.37;6.20;;;;;;;25.02;40.89;98517.69;5074396;28;20169;-91
2023/10/20 07:50:01;;;;;;;10.63;6.03;;;;;;;24.87;41.25;98516.84;5073506;28;20177;-91
2023/10/20 07:52:27;;;;;;;12.10;6.20;;;;;;;24.65;42.17;98517.75;5093085;28;20600;-91
2023/10/20 07:54:53;;;;;;;13.97;6.33;;;;;;;24.48;42.49;98513.56;5080772;28;20258;-91
2023/10/20 07:57:22;;;;;;;15.13;6.40;;;;;;;24.36;43.70;98520.41;5074200;28;20180;-90
2023/10/20 07:59:48;;;;;;;10.33;5.73;;;;;;;24.29;43.98;98508.75;5092938;28;20326;-90
2023/10/20 08:02:15;;;;;;;10.33;6.30;;;;;;;24.23;43.70;98509.47;5094788;28;20662;-91
2023/10/20 08:04:41;;;;;;;11.97;7.03;;;;;;;24.26;42.95;98499.25;5092855;28;20271;-90
2023/10/20 08:07:12;;;;;;;12.03;6.37;;;;;;;24.17;43.44;98503.00;5094534;28;20168;-91
2023/10/20 08:09:37;;;;;;;10.43;5.87;;;;;;;24.15;43.50;98507.72;5087202;28;20185;-90
2023/10/20 08:12:04;;;;;;;11.53;5.57;;;;;;;24.05;44.68;98509.78;5074038;28;20256;-90
2023/10/20 08:14:30;;;;;;;9.03;5.17;;;;;;;24.13;44.76;98506.22;5079797;28;20204;-90
2023/10/20 08:16:59;;;;;;;10.80;6.17;;;;;;;24.29;43.23;98503.41;5094443;28;20176;-93
2023/10/20 08:19:26;;;;;;;9.37;6.03;;;;;;;24.26;43.22;98503.75;5093402;28;20191;-91
2023/10/20 08:21:52;;;;;;;17.17;5.80;;;;;;;24.24;44.63;98513.81;5092645;28;20188;-91
2023/10/20 08:24:19;;;;;;;9.33;5.50;;;;;;;24.33;43.93;98515.41;5074364;28;20595;-91
2023/10/20 08:26:46;;;;;;;12.07;6.00;;;;;;;24.40;43.20;98506.44;5073785;28;20264;-90
2023/10/20 08:29:13;;;;;;;13.43;6.40;;;;;;;24.41;43.47;98510.81;5091891;28;20651;-91
2023/10/20 08:31:40;;;;;;;10.47;5.93;;;;;;;24.46;43.74;98510.25;5092990;28;20649;-92
2023/10/20 08:34:05;;;;;;;10.40;6.27;;;;;;;24.50;42.88;98508.03;5092937;28;20191;-92
2023/10/20 08:36:31;;;;;;;11.20;7.27;;;;;;;24.42;42.35;98499.06;5093821;28;20193;-91
2023/10/20 08:39:01;;;;;;;11.23;7.03;;;;;;;24.37;42.92;98501.44;5093401;28;20238;-92
2023/10/20 08:41:28;;;;;;;14.57;8.60;;;;;;;24.60;42.73;98490.66;5094048;28;20204;-91
2023/10/20 08:43:56;;;;;;;17.07;7.50;;;;;;;24.82;41.11;98500.47;5093537;28;20196;-90
2023/10/20 08:46:23;;;;;;;14.87;6.67;;;;;;;24.80;41.64;98496.31;5094012;28;20274;-90
2023/10/20 08:48:50;;;;;;;11.73;7.27;;;;;;;24.85;41.24;98493.91;5093425;28;20179;-91
2023/10/20 08:51:17;;;;;;;15.30;6.80;;;;;;;24.88;41.83;98496.22;5093325;28;20184;-91
2023/10/20 08:53:45;;;;;;;16.33;8.80;;;;;;;24.93;41.83;98486.59;5093211;28;20261;-91
2023/10/20 08:56:13;;;;;;;11.70;7.27;;;;;;;24.81;42.02;98488.09;5074383;28;20209;-91
2023/10/20 08:58:38;;;;;;;14.63;6.43;;;;;;;24.94;42.01;98496.31;5079989;28;20263;-90
2023/10/20 09:01:05;;;;;;;9.90;5.20;;;;;;;25.04;41.90;98498.69;5092583;28;20597;-91
2023/10/20 09:03:48;;;;;;;10.90;5.63;;;;;;;24.92;41.72;98498.34;5092386;28;20200;-90
2023/10/20 09:06:17;;;;;;;11.07;6.03;;;;;;;;;;5088938;28;20591;-91
2023/10/20 09:08:49;;;;;;;14.93;5.30;;;;;;;25.08;42.34;98504.53;5073254;28;20181;-91
2023/10/20 09:11:18;;;;;;;9.27;5.20;;;;;;;25.24;42.43;98488.19;5089093;28;20199;-91
2023/10/20 09:13:46;;;;;;;8.77;4.97;;;;;;;25.14;42.20;98493.03;5093395;28;20165;-90
2023/10/20 09:16:14;;;;;;;9.93;5.47;;;;;;;25.40;41.66;98486.13;5093662;28;20266;-90
2023/10/20 09:18:53;;;;;;;9.67;5.80;;;;;;;25.46;41.51;98482.72;5091875;28;20241;-89
2023/10/20 09:21:25;;;;;;;11.77;6.10;;;;;;;25.49;41.29;98486.88;5094449;28;20164;-92
2023/10/20 09:24:02;;;;;;;10.03;5.80;;;;;;;25.49;42.43;98470.78;5075102;28;20177;-91
2023/10/20 09:26:31;;;;;;;10.83;5.27;;;;;;;25.68;42.33;98469.31;5073607;28;20160;-91
2023/10/20 09:28:58;;;;;;;7.40;4.40;;;;;;;25.61;41.80;98456.66;5087740;28;20645;-90
2023/10/20 09:31:26;;;;;;;13.93;4.80;;;;;;;26.02;41.59;98451.41;5093307;28;20176;-91
2023/10/20 09:33:52;;;;;;;10.38;4.90;;;;;;;26.30;41.11;98447.94;5090565;28;20184;-92
2023/10/20 09:36:19;;;;;;;7.90;4.80;;;;;;;26.52;40.53;98444.16;5071759;28;20605;-92
2023/10/20 09:38:57;;;;;;;10.43;5.20;;;;;;;26.47;40.04;98447.41;5073048;28;20177;-92
2023/10/20 09:41:27;;;;;;;9.45;4.93;;;;;;;26.62;39.31;98440.06;5082804;28;20238;-91
2023/10/20 09:44:05;;;;;;;12.73;4.22;;;;;;;26.69;39.93;98451.69;5093219;28;20181;-92
2023/10/20 09:46:54;;;;;;;8.55;5.15;;;;;;;26.62;39.81;98433.84;5093498;28;20570;-91
2023/10/20 09:49:26;;;;;;;10.98;5.13;;;;;;;26.83;39.66;98437.28;5092921;28;20240;-92
2023/10/20 09:51:52;;;;;;;10.90;4.28;;;;;;;26.78;39.99;98439.75;5092312;28;20168;-91
2023/10/20 09:54:22;;;;;;;8.48;4.20;;;;;;;26.97;39.50;98443.53;5092712;28;20184;-91
2023/10/20 09:56:49;;;;;;;6.60;3.80;;;;;;;27.05;40.12;98438.00;5092657;28;20180;-91
2023/10/20 09:59:20;;;;;;;5.63;3.88;;;;;;;27.22;39.06;98439.28;5093030;28;20607;-90
2023/10/20 10:01:47;;;;;;;9.50;4.68;;;;;;;27.35;38.67;98431.25;5111323;28;20290;-92
2023/10/20 10:04:13;;;;;;;8.85;4.90;;;;;;;27.38;38.74;98436.19;5096957;28;20176;-91
2023/10/20 10:06:43;;;;;;;7.80;3.85;;;;;;;27.37;39.61;98434.56;5082697;28;20190;-91
2023/10/20 10:09:10;;;;;;;6.53;4.13;;;;;;;27.56;38.41;98440.22;5082741;28;20203;-92
2023/10/20 10:11:42;;;;;;;10.63;4.57;;;;;;;27.62;37.79;98436.72;5096234;28;20188;-92
2023/10/20 10:14:08;;;;;;;8.68;4.57;;;;;;;27.75;37.33;98439.41;5095830;28;20184;-91
2023/10/20 10:16:54;;;;;;;7.28;4.30;;;;;;;27.87;37.55;98432.34;5096480;28;20204;-91
2023/10/20 10:19:26;;;;;;;7.57;4.47;;;;;;;27.88;37.12;98413.28;5095617;28;20165;-91
2023/10/20 10:21:53;;;;;;;8.13;3.85;;;;;;;27.80;37.44;98415.38;5095299;28;20203;-91
2023/10/20 10:24:25;;;;;;;8.73;4.28;;;;;;;27.95;37.89;98414.13;5096661;28;20180;-91
2023/10/20 10:26:59;;;;;;;6.75;4.03;;;;;;;28.12;37.00;98409.16;5096585;28;20228;-91
2023/10/20 10:30:05;;;;;;;10.35;3.92;;;;;;;28.14;37.20;98419.75;5095424;28;20175;-91
2023/10/20 10:32:33;;;;;;;8.25;4.05;;;;;;;28.31;36.46;98411.00;5096920;28;20152;-92
2023/10/20 10:35:00;;;;;;;7.35;4.03;;;;;;;28.45;37.26;98403.69;5094457;28;20200;-91
2023/10/20 10:37:32;;;;;;;6.72;3.72;;;;;;;28.44;36.88;98402.88;5096236;28;20199;-91
2023/10/20 10:40:07;;;;;;;7.03;3.97;;;;;;;28.55;36.55;98410.31;5095118;28;20242;-92
2023/10/20 10:42:45;;;;;;;6.78;3.13;;;;;;;28.70;35.81;98401.16;5096526;28;20172;-91
2023/10/20 10:45:27;;;;;;;6.47;3.67;;;;;;;28.70;36.26;98406.53;5095541;28;20176;-92
2023/10/20 10:48:12;;;;;;;8.55;3.65;;;;;;;28.55;37.13;98401.38;5094945;28;20184;-91
2023/10/20 10:50:44;;;;;;;6.53;3.75;;;;;;;28.72;37.31;98396.38;5077354;28;20661;-91
2023/10/20 10:53:11;;;;;;;7.18;3.35;;;;;;;28.97;35.53;98398.13;5074793;28;20181;-92
2023/10/20 10:55:37;;;;;;;9.35;4.07;;;;;;;29.02;35.83;98392.06;5082758;28;20207;-91
2023/10/20 10:58:07;;;;;;;6.70;3.63;;;;;;;29.18;35.86;98386.19;5094063;28;20180;-92
2023/10/20 11:00:36;;;;;;;8.88;3.90;;;;;;;29.14;35.77;98376.88;5095829;28;20164;-91
2023/10/20 11:03:03;;;;;;;7.90;4.00;;;;;;;29.23;36.27;98380.97;5095303;28;20237;-91
2023/10/20 11:05:32;;;;;;;5.85;2.92;;;;;;;29.42;35.72;98374.63;5095705;28;20218;-91
2023/10/20 11:08:03;;;;;;;4.90;2.58;;;;;;;29.44;36.37;98367.13;5095839;28;20267;-91
2023/10/20 11:10:34;;;;;;;7.05;3.17;;;;;;;29.66;35.51;98367.59;5094776;28;20172;-92
2023/10/20 11:13:06;;;;;;;5.22;2.95;;;;;;;29.83;35.23;98371.41;5094353;28;20183;-91
2023/10/20 11:15:32;;;;;;;4.78;2.90;;;;;;;30.07;34.96;98367.00;5094500;28;20203;-92
2023/10/20 11:18:01;;;;;;;12.75;3.08;;;;;;;30.08;35.20;98365.97;5085493;28;20633;-91
2023/10/20 11:20:32;;;;;;;7.10;3.05;;;;;;;30.22;34.65;98370.19;5057750;28;20696;-91
2023/10/20 11:23:00;;;;;;;5.43;3.00;;;;;;;30.32;34.78;98357.00;5087096;28;20641;-92
2023/10/20 11:25:26;;;;;;;9.18;3.15;;;;;;;30.46;33.94;98349.56;5095508;28;20199;-91
2023/10/20 11:27:55;;;;;;;10.85;3.15;;;;;;;30.51;33.98;98350.53;5094083;28;20219;-91
2023/10/20 11:30:38;;;;;;;7.30;2.90;;;;;;;30.49;34.12;98347.25;5077597;28;20200;-91
2023/10/20 11:33:04;;;;;;;5.40;2.38;;;;;;;30.65;33.99;98343.09;5081847;28;20263;-92
2023/10/20 11:35:29;;;;;;;5.75;2.78;;;;;;;30.72;33.77;98343.81;5095693;28;20216;-91
2023/10/20 11:37:57;;;;;;;5.38;2.47;;;;;;;30.66;34.10;98333.94;5094362;28;20655;-92
2023/10/20 11:40:24;;;;;;;6.35;2.80;;;;;;;30.83;33.05;98334.94;5093971;28;20644;-92
2023/10/20 11:42:49;;;;;;;8.68;2.38;;;;;;;30.92;33.93;98334.41;5089848;28;20180;-91
2023/10/20 11:45:16;;;;;;;9.30;2.35;;;;;;;31.10;33.16;98327.31;5090626;28;20187;-92
2023/10/20 11:47:42;;;;;;;5.20;2.85;;;;;;;31.18;33.05;98324.25;5073682;28;20188;-91
2023/10/20 11:50:09;;;;;;;9.50;2.95;;;;;;;31.17;33.01;98328.00;5073670;28;20177;-92
2023/10/20 11:52:40;;;;;;;9.75;3.20;;;;;;;31.28;32.69;98332.66;5073964;28;20181;-91
2023/10/20 11:55:09;;;;;;;6.80;2.60;;;;;;;31.35;32.81;98327.94;5074955;28;20349;-93
2023/10/20 11:57:35;;;;;;;4.28;2.67;;;;;;;31.39;32.75;98337.28;5093897;28;20256;-91
2023/10/20 12:00:07;;;;;;;6.82;2.30;;;;;;;31.47;33.06;98334.25;5093575;28;20183;-92
2023/10/20 12:02:34;;;;;;;8.27;2.70;;;;;;;31.45;32.81;98320.06;5093651;28;20552;-92
2023/10/20 12:05:00;;;;;;;11.70;2.85;;;;;;;31.51;32.73;98322.72;5110586;28;20578;-91
2023/10/20 12:07:26;;;;;;;8.68;2.85;;;;;;;31.67;32.42;98326.59;5093679;28;20172;-91